Time;durP1;ratioP1;P1;durP2;ratioP2;P2;SDS_P1;SDS_P2;PMS_P1;PMS_P2;Temp;Humidity;BMP_temperature;BMP_pressure;BME280_temperature;BME280_humidity;BME280_pressure;Samples;Min_cycle;Max_cycle;Signal;HPM_P1;HPM_P2
2021/06/17 00:02:11;;;;;;;14.23;9.82;;;;;;;19.26;100.00;100483.84;5236469;28;20021;-77
2021/06/17 00:04:41;;;;;;;17.52;10.10;;;;;;;19.30;100.00;100485.31;5236226;28;20039;-77
2021/06/17 00:07:12;;;;;;;16.50;10.80;;;;;;;19.34;100.00;100486.81;5235948;28;20021;-77
2021/06/17 00:09:42;;;;;;;14.45;10.63;;;;;;;19.42;100.00;100483.59;5233821;28;20033;-77
2021/06/17 00:12:13;;;;;;;15.38;10.35;;;;;;;19.43;100.00;100486.13;5236041;28;20104;-78
2021/06/17 00:14:43;;;;;;;12.07;8.70;;;;;;;19.45;100.00;100494.81;5235345;28;20040;-77
2021/06/17 00:17:13;;;;;;;16.70;9.13;;;;;;;19.32;100.00;100478.13;5237216;28;20068;-78
2021/06/17 00:19:46;;;;;;;17.63;11.40;;;;;;;19.23;100.00;100477.91;5236216;28;20218;-78
2021/06/17 00:22:16;;;;;;;16.25;11.00;;;;;;;19.19;100.00;100472.00;5236750;28;20633;-78
2021/06/17 00:24:46;;;;;;;13.63;9.82;;;;;;;19.23;100.00;100477.91;5229503;28;20033;-77
2021/06/17 00:27:16;;;;;;;15.02;10.63;;;;;;;19.17;100.00;100478.38;5225167;28;20033;-78
2021/06/17 00:29:47;;;;;;;15.43;10.90;;;;;;;19.13;100.00;100477.69;5237019;28;20064;-77
2021/06/17 00:32:17;;;;;;;18.63;10.40;;;;;;;19.20;100.00;100479.00;5235697;28;20278;-78
2021/06/17 00:34:47;;;;;;;14.52;10.77;;;;;;;19.22;100.00;100476.22;5237759;28;20024;-77
2021/06/17 00:37:18;;;;;;;15.52;10.13;;;;;;;19.26;100.00;100475.91;5235733;28;20029;-78
2021/06/17 00:39:48;;;;;;;17.25;10.25;;;;;;;19.17;100.00;100479.22;5237971;28;20432;-78
2021/06/17 00:42:18;;;;;;;17.10;11.23;;;;;;;19.09;100.00;100480.72;5234924;28;20055;-78
2021/06/17 00:44:49;;;;;;;18.17;11.25;;;;;;;19.05;100.00;100480.06;5236497;28;20447;-77
2021/06/17 00:47:19;;;;;;;15.10;10.83;;;;;;;19.10;100.00;100485.06;5234445;28;20025;-77
2021/06/17 00:49:50;;;;;;;21.60;11.27;;;;;;;18.97;100.00;100476.28;5237605;28;20814;-77
2021/06/17 00:52:20;;;;;;;16.58;11.52;;;;;;;18.97;100.00;100482.41;5230527;28;20021;-78
2021/06/17 00:54:50;;;;;;;16.55;12.13;;;;;;;18.94;100.00;100473.84;5227756;28;20082;-78
2021/06/17 00:57:21;;;;;;;14.73;9.63;;;;;;;19.02;100.00;100479.44;5223227;28;20021;-77
2021/06/17 00:59:52;;;;;;;16.10;10.90;;;;;;;19.07;100.00;100472.03;5230609;28;20051;-78
2021/06/17 01:02:23;;;;;;;16.13;10.75;;;;;;;19.02;100.00;100475.00;5238171;28;20111;-78
2021/06/17 01:04:53;;;;;;;14.10;11.45;;;;;;;19.08;100.00;100471.91;5234533;28;20080;-77
2021/06/17 01:07:33;;;;;;;17.20;11.75;;;;;;;19.08;100.00;100466.59;5241658;28;20664;-78
2021/06/17 01:10:17;;;;;;;15.38;11.85;;;;;;;19.00;100.00;100461.03;5226442;28;20024;-77
2021/06/17 01:12:57;;;;;;;16.15;11.50;;;;;;;19.00;100.00;100466.31;5237512;28;20025;-78
2021/06/17 01:15:30;;;;;;;20.33;13.63;;;;;;;18.94;100.00;100461.44;5232010;28;20037;-78
2021/06/17 01:18:14;;;;;;;19.55;11.80;;;;;;;18.83;100.00;100456.09;5239526;28;20104;-77
2021/06/17 01:20:54;;;;;;;13.82;10.27;;;;;;;18.91;100.00;100455.53;5238832;28;20028;-77
2021/06/17 01:23:27;;;;;;;19.00;12.07;;;;;;;18.91;100.00;100450.25;5236465;28;20024;-78
2021/06/17 01:26:24;;;;;;;19.25;13.27;;;;;;;18.69;100.00;100450.03;5222007;28;20028;-78
2021/06/17 01:28:57;;;;;;;20.77;13.65;;;;;;;18.55;100.00;100444.03;5238998;28;20111;-78
2021/06/17 01:31:31;;;;;;;21.13;13.43;;;;;;;18.46;100.00;100453.47;5232778;28;20521;-77
2021/06/17 01:34:02;;;;;;;16.63;13.75;;;;;;;18.45;100.00;100450.91;5238697;28;20407;-78
2021/06/17 01:36:42;;;;;;;20.48;13.35;;;;;;;18.27;100.00;100447.75;5236214;28;20067;-77
2021/06/17 01:39:13;;;;;;;16.63;13.25;;;;;;;18.28;100.00;100449.47;5252841;22;20545;-79
2021/06/17 01:41:47;;;;;;;18.38;13.13;;;;;;;18.29;100.00;100447.63;5234541;28;20031;-79
2021/06/17 01:44:20;;;;;;;16.25;12.80;;;;;;;18.44;100.00;100443.94;5235222;28;20060;-79
2021/06/17 01:46:51;;;;;;;18.88;13.93;;;;;;;18.39;100.00;100438.13;5238886;28;20081;-79
2021/06/17 01:49:22;;;;;;;23.73;14.55;;;;;;;18.41;100.00;100430.91;5219467;28;20064;-79
2021/06/17 01:51:56;;;;;;;21.65;14.90;;;;;;;18.27;100.00;100423.06;5218231;28;20078;-79
2021/06/17 01:54:28;;;;;;;24.58;13.52;;;;;;;18.18;100.00;100423.72;5219332;28;20397;-79
2021/06/17 01:57:01;;;;;;;19.05;14.10;;;;;;;18.13;100.00;100429.31;5214540;28;20029;-79
2021/06/17 01:59:33;;;;;;;19.10;14.52;;;;;;;18.24;100.00;100420.63;5215799;28;20033;-79
2021/06/17 02:02:04;;;;;;;22.42;15.30;;;;;;;18.17;100.00;100424.66;5218143;28;20029;-79
2021/06/17 02:04:34;;;;;;;24.65;14.98;;;;;;;18.15;100.00;100427.41;5220418;28;20120;-79
2021/06/17 02:07:06;;;;;;;21.38;14.27;;;;;;;18.27;100.00;100415.13;5219763;28;20526;-78
2021/06/17 02:09:37;;;;;;;21.05;14.00;;;;;;;18.36;100.00;100425.94;5215829;28;20712;-79
2021/06/17 02:12:08;;;;;;;23.95;13.35;;;;;;;18.36;100.00;100422.47;5217228;28;20021;-79
2021/06/17 02:14:39;;;;;;;23.70;14.35;;;;;;;18.40;100.00;100418.66;5216105;28;20108;-79
2021/06/17 02:17:12;;;;;;;22.25;14.50;;;;;;;18.38;100.00;100423.19;5216987;28;20606;-79
2021/06/17 02:19:43;;;;;;;18.23;14.35;;;;;;;18.34;100.00;100422.56;5216643;28;20036;-79
2021/06/17 02:22:14;;;;;;;22.55;14.80;;;;;;;18.41;100.00;100423.84;5218642;28;20029;-79
2021/06/17 02:24:51;;;;;;;22.25;15.00;;;;;;;18.38;100.00;100420.56;5219137;28;20086;-79
2021/06/17 02:27:27;;;;;;;21.20;14.55;;;;;;;18.33;100.00;100420.03;5219507;28;20153;-79
2021/06/17 02:30:03;;;;;;;18.63;13.77;;;;;;;18.28;100.00;100419.50;5214375;28;20032;-79
2021/06/17 02:32:38;;;;;;;18.85;14.15;;;;;;;18.36;100.00;100414.53;5217751;28;20032;-79
2021/06/17 02:35:10;;;;;;;20.13;13.35;;;;;;;18.54;100.00;100414.06;5216395;28;20032;-79
2021/06/17 02:37:44;;;;;;;24.77;15.52;;;;;;;18.51;100.00;100418.75;5219034;28;20119;-79
2021/06/17 02:40:17;;;;;;;20.73;14.77;;;;;;;18.58;100.00;100412.06;5216002;28;20475;-79
2021/06/17 02:42:50;;;;;;;21.88;15.30;;;;;;;18.55;100.00;100409.63;5218358;28;20488;-79
2021/06/17 02:45:28;;;;;;;22.10;14.45;;;;;;;18.53;100.00;100403.59;5213514;28;20013;-79
2021/06/17 02:47:58;;;;;;;23.60;15.40;;;;;;;18.43;100.00;100405.19;5217750;28;20021;-79
2021/06/17 02:50:28;;;;;;;18.90;14.27;;;;;;;18.53;100.00;100411.53;5213574;28;20033;-79
2021/06/17 02:52:58;;;;;;;22.13;14.55;;;;;;;18.28;100.00;100411.56;5218283;28;20061;-79
2021/06/17 02:55:29;;;;;;;24.23;15.02;;;;;;;18.25;100.00;100406.44;5215118;28;20021;-79
2021/06/17 02:58:37;;;;;;;20.65;15.13;;;;;;;18.26;100.00;100409.00;5218062;28;20096;-79
2021/06/17 03:01:11;;;;;;;21.10;14.55;;;;;;;18.40;100.00;100408.06;5215645;28;20025;-80
2021/06/17 03:03:46;;;;;;;19.27;14.10;;;;;;;18.49;100.00;100405.59;5216493;28;20040;-79
2021/06/17 03:06:28;;;;;;;20.08;14.57;;;;;;;18.53;100.00;100409.72;5215173;28;20442;-78
2021/06/17 03:09:06;;;;;;;21.75;14.88;;;;;;;18.47;100.00;100411.94;5214787;28;20099;-79
2021/06/17 03:11:39;;;;;;;19.13;14.10;;;;;;;18.42;100.00;100404.38;5215057;28;20167;-79
2021/06/17 03:14:16;;;;;;;24.00;15.07;;;;;;;18.44;100.00;100398.94;5213392;28;20506;-79
2021/06/17 03:16:50;;;;;;;25.20;15.13;;;;;;;18.48;100.00;100403.09;5216547;28;20033;-79
2021/06/17 03:19:21;;;;;;;24.13;15.15;;;;;;;18.35;100.00;100403.09;5215422;28;20032;-79
2021/06/17 03:21:56;;;;;;;24.60;15.35;;;;;;;18.34;100.00;100393.44;5215807;28;20036;-79
2021/06/17 03:24:30;;;;;;;20.90;15.50;;;;;;;18.33;100.00;100399.69;5215517;28;20501;-79
2021/06/17 03:27:02;;;;;;;20.80;14.98;;;;;;;18.48;100.00;100401.28;5215035;28;20302;-79
2021/06/17 03:29:37;;;;;;;23.13;14.15;;;;;;;18.54;100.00;100400.81;5215024;28;20094;-79
2021/06/17 03:32:10;;;;;;;24.95;15.82;;;;;;;18.50;100.00;100401.19;5217739;28;20024;-79
2021/06/17 03:34:43;;;;;;;20.60;14.18;;;;;;;18.51;100.00;100393.09;5217763;28;20028;-79
2021/06/17 03:37:16;;;;;;;21.25;14.63;;;;;;;18.58;100.00;100389.09;5218266;28;20033;-79
2021/06/17 03:39:47;;;;;;;20.85;14.90;;;;;;;18.71;100.00;100387.22;5217752;28;20035;-79
2021/06/17 03:42:18;;;;;;;20.35;14.25;;;;;;;18.74;100.00;100393.16;5214762;28;20021;-79
2021/06/17 03:44:51;;;;;;;22.98;14.30;;;;;;;18.83;100.00;100403.13;5216959;28;20083;-79
2021/06/17 03:47:25;;;;;;;21.85;14.63;;;;;;;18.56;100.00;100400.72;5214668;28;20021;-79
2021/06/17 03:49:56;;;;;;;22.42;14.60;;;;;;;18.70;100.00;100395.31;5214103;28;20044;-79
2021/06/17 03:52:27;;;;;;;23.08;15.27;;;;;;;18.79;100.00;100398.97;5218053;28;20482;-79
2021/06/17 03:54:58;;;;;;;26.17;14.85;;;;;;;18.72;100.00;100396.03;5214324;28;20026;-79
2021/06/17 03:57:30;;;;;;;23.83;16.00;;;;;;;18.79;100.00;100404.25;5211558;28;20180;-78
2021/06/17 04:00:00;;;;;;;20.92;15.15;;;;;;;18.88;100.00;100398.31;5218117;28;20044;-79
2021/06/17 04:02:31;;;;;;;23.08;14.93;;;;;;;18.97;100.00;100405.59;5218514;28;20060;-79
2021/06/17 04:05:03;;;;;;;21.98;14.60;;;;;;;19.00;100.00;100405.38;5222864;28;20025;-79
2021/06/17 04:07:37;;;;;;;19.23;13.98;;;;;;;19.07;100.00;100406.63;5224780;28;20029;-79
2021/06/17 04:10:09;;;;;;;22.35;14.77;;;;;;;19.20;100.00;100402.16;5218508;28;20017;-79
2021/06/17 04:12:40;;;;;;;20.92;14.52;;;;;;;19.36;100.00;100418.63;5218451;28;20026;-79
2021/06/17 04:15:11;;;;;;;19.13;13.05;;;;;;;19.43;100.00;100411.06;5217681;28;20021;-79
2021/06/17 04:17:44;;;;;;;17.80;12.15;;;;;;;19.86;100.00;100415.69;5218341;28;20026;-79
2021/06/17 04:20:23;;;;;;;17.23;11.82;;;;;;;20.00;100.00;100418.13;5217656;28;20056;-80
2021/06/17 04:22:56;;;;;;;17.02;11.88;;;;;;;20.16;100.00;100423.13;5219679;28;20045;-79
2021/06/17 04:25:28;;;;;;;22.05;13.45;;;;;;;20.07;100.00;100416.72;5219360;28;20029;-79
2021/06/17 04:28:01;;;;;;;18.30;12.73;;;;;;;20.13;100.00;100424.19;5215609;28;20059;-80
2021/06/17 04:30:34;;;;;;;19.85;13.48;;;;;;;20.35;100.00;100420.72;5221803;28;20058;-79
2021/06/17 04:33:08;;;;;;;19.95;13.05;;;;;;;20.75;99.87;100418.28;5222260;28;20038;-80
2021/06/17 04:35:41;;;;;;;18.23;12.88;;;;;;;20.80;98.85;100420.59;5225415;28;20501;-80
2021/06/17 04:38:13;;;;;;;18.67;12.85;;;;;;;21.02;100.00;100409.97;5221325;28;20026;-80
2021/06/17 04:40:46;;;;;;;18.05;12.25;;;;;;;22.76;91.77;100401.16;5218942;28;20033;-79
2021/06/17 04:43:21;;;;;;;16.70;10.63;;;;;;;25.15;78.46;100406.91;5224928;28;20025;-80
2021/06/17 04:45:54;;;;;;;15.67;9.90;;;;;;;25.96;76.11;100393.31;5220904;28;20078;-80
2021/06/17 04:48:27;;;;;;;12.30;7.43;;;;;;;28.14;70.98;100393.72;5223628;28;20025;-80
2021/06/17 04:50:57;;;;;;;11.65;7.97;;;;;;;28.79;65.39;100390.72;5221540;28;20384;-80
2021/06/17 04:53:30;;;;;;;13.03;9.03;;;;;;;28.30;67.36;100390.16;5223344;28;20025;-80
2021/06/17 04:56:00;;;;;;;14.70;9.40;;;;;;;28.70;66.52;100392.75;5222541;28;20302;-80
2021/06/17 04:58:33;;;;;;;13.03;8.90;;;;;;;28.72;69.25;100399.66;5223198;28;20025;-80
2021/06/17 05:01:05;;;;;;;12.57;8.40;;;;;;;28.25;67.99;100406.81;5224279;28;20301;-80
2021/06/17 05:03:37;;;;;;;11.75;8.13;;;;;;;29.34;65.51;100404.06;5222497;28;20029;-80
2021/06/17 05:06:09;;;;;;;10.32;6.50;;;;;;;31.21;61.09;100392.78;5220497;28;20017;-80
2021/06/17 05:11:29;;;;;;;12.70;8.13;;;;;;;29.41;65.22;100413.94;5222356;28;20120;-80
2021/06/17 05:13:59;;;;;;;13.00;8.10;;;;;;;29.32;66.23;100409.63;5224406;28;20637;-80
2021/06/17 05:16:29;;;;;;;10.55;7.43;;;;;;;30.78;62.55;100400.09;5220493;28;20026;-80
2021/06/17 05:19:00;;;;;;;10.32;6.50;;;;;;;30.70;62.30;100402.88;5223000;28;20040;-80
2021/06/17 05:21:31;;;;;;;13.13;6.85;;;;;;;31.61;61.12;100405.69;5220159;28;20100;-81
2021/06/17 05:24:02;;;;;;;13.55;7.63;;;;;;;31.38;60.20;100406.91;5220757;28;20053;-79
2021/06/17 05:26:32;;;;;;;11.15;7.13;;;;;;;32.24;58.91;100405.66;5221120;28;20020;-79
2021/06/17 05:29:04;;;;;;;9.32;6.55;;;;;;;32.28;59.30;100406.97;5231236;28;20067;-79
2021/06/17 05:31:34;;;;;;;13.25;6.55;;;;;;;31.91;59.54;100404.53;5221990;28;20033;-79
2021/06/17 05:34:04;;;;;;;9.57;6.50;;;;;;;33.44;58.25;100406.72;5220231;28;20031;-79
2021/06/17 05:36:35;;;;;;;17.70;7.68;;;;;;;31.86;60.00;100412.41;5217698;28;20272;-79
2021/06/17 05:39:05;;;;;;;10.95;7.38;;;;;;;32.11;60.89;100408.25;5220140;28;20060;-79
2021/06/17 05:41:36;;;;;;;9.32;6.95;;;;;;;31.96;60.14;100417.47;5218240;28;20115;-78
2021/06/17 05:44:06;;;;;;;12.00;7.68;;;;;;;31.19;62.27;100416.44;5220005;28;20356;-78
2021/06/17 05:46:42;;;;;;;14.32;8.35;;;;;;;30.54;64.46;100420.09;5217369;28;20067;-79
2021/06/17 05:49:14;;;;;;;11.70;8.02;;;;;;;30.56;64.87;100425.31;5217405;28;20028;-78
2021/06/17 05:51:44;;;;;;;13.45;9.02;;;;;;;28.54;69.97;100434.03;5218323;28;20079;-78
2021/06/17 05:54:14;;;;;;;13.73;9.07;;;;;;;28.60;70.37;100440.53;5214220;28;20029;-78
2021/06/17 05:56:45;;;;;;;16.20;9.23;;;;;;;27.37;75.50;100443.53;5212802;28;20029;-78
2021/06/17 05:59:17;;;;;;;13.93;9.05;;;;;;;27.25;76.10;100440.31;5218249;28;20107;-78
2021/06/17 06:01:48;;;;;;;11.63;8.50;;;;;;;28.04;74.35;100446.84;5217810;28;20122;-78
2021/06/17 06:04:18;;;;;;;16.00;8.70;;;;;;;27.28;75.49;100447.22;5213501;28;20090;-78
2021/06/17 06:06:48;;;;;;;15.18;9.15;;;;;;;27.65;75.90;100451.13;5217998;28;20276;-78
2021/06/17 06:09:19;;;;;;;14.60;9.27;;;;;;;27.69;76.31;100455.19;5217771;28;20697;-78
2021/06/17 06:11:50;;;;;;;14.30;9.40;;;;;;;27.42;76.89;100444.72;5214331;28;20280;-78
2021/06/17 06:14:20;;;;;;;15.13;9.80;;;;;;;27.54;76.09;100446.09;5217099;28;20183;-79
2021/06/17 06:16:51;;;;;;;13.52;8.40;;;;;;;27.82;75.74;100443.97;5213711;28;20029;-78
2021/06/17 06:19:21;;;;;;;11.55;8.95;;;;;;;27.57;76.56;100453.81;5216882;28;20459;-78
2021/06/17 06:21:52;;;;;;;12.97;8.93;;;;;;;27.53;76.46;100451.63;5213380;28;20108;-78
2021/06/17 06:24:22;;;;;;;11.68;9.30;;;;;;;27.80;75.52;100446.81;5217452;28;20626;-78
2021/06/17 06:26:57;;;;;;;12.50;8.60;;;;;;;28.08;74.72;100440.09;5214094;28;20017;-78
2021/06/17 06:29:28;;;;;;;12.00;8.87;;;;;;;28.17;75.78;100449.81;5213263;28;20037;-77
2021/06/17 06:31:59;;;;;;;12.57;9.38;;;;;;;28.01;76.30;100440.94;5216470;28;20478;-78
2021/06/17 06:34:30;;;;;;;16.08;9.13;;;;;;;28.31;74.27;100446.47;5214934;28;20039;-78
2021/06/17 06:37:00;;;;;;;13.23;8.55;;;;;;;29.02;72.32;100447.31;5213112;28;20022;-78
2021/06/17 06:39:31;;;;;;;10.25;7.47;;;;;;;28.77;72.18;100451.09;5213426;28;20029;-78
2021/06/17 06:42:01;;;;;;;8.63;7.40;;;;;;;29.38;72.38;100451.19;5216034;28;20207;-78
2021/06/17 06:44:31;;;;;;;12.40;8.90;;;;;;;28.87;71.63;100449.06;5211734;28;20064;-78
2021/06/17 06:47:02;;;;;;;10.57;7.10;;;;;;;29.55;71.87;100458.19;5215692;28;20414;-78
2021/06/17 06:49:32;;;;;;;11.05;7.25;;;;;;;29.52;71.26;100456.69;5213700;28;20346;-78
2021/06/17 06:52:03;;;;;;;10.95;7.35;;;;;;;30.01;69.05;100455.31;5215331;28;20086;-78
2021/06/17 06:54:33;;;;;;;11.52;8.07;;;;;;;29.81;70.76;100448.75;5215272;28;20036;-78
2021/06/17 06:57:03;;;;;;;10.30;7.83;;;;;;;30.51;70.01;100455.53;5211757;28;20539;-78
2021/06/17 06:59:34;;;;;;;10.95;8.13;;;;;;;30.06;70.49;100449.41;5212427;28;20303;-78
2021/06/17 07:02:04;;;;;;;12.03;7.70;;;;;;;29.64;72.36;100462.50;5207879;28;20442;-78
2021/06/17 07:04:34;;;;;;;10.97;7.07;;;;;;;30.63;70.52;100445.16;5209503;28;20283;-78
2021/06/17 07:07:05;;;;;;;11.20;6.73;;;;;;;30.84;69.08;100452.31;5211042;28;20371;-78
2021/06/17 07:09:35;;;;;;;10.40;7.25;;;;;;;31.19;68.69;100448.03;5215611;28;20024;-78
2021/06/17 07:12:06;;;;;;;9.75;7.35;;;;;;;29.96;71.75;100452.31;5214137;28;20479;-78
2021/06/17 07:14:36;;;;;;;8.05;6.55;;;;;;;30.51;71.54;100457.38;5214903;28;20123;-78
2021/06/17 07:17:07;;;;;;;11.97;7.77;;;;;;;29.79;74.85;100464.25;5215068;28;20063;-78
2021/06/17 07:19:37;;;;;;;9.60;6.43;;;;;;;31.25;67.95;100453.53;5215634;28;20033;-78
2021/06/17 07:22:08;;;;;;;13.77;7.40;;;;;;;30.51;69.04;100465.47;5213906;28;20586;-78
2021/06/17 07:24:39;;;;;;;9.98;6.95;;;;;;;31.60;67.16;100455.38;5216833;28;20462;-78
2021/06/17 07:27:09;;;;;;;10.33;6.80;;;;;;;32.16;65.29;100457.19;5210516;28;20036;-78
2021/06/17 07:29:39;;;;;;;13.73;7.00;;;;;;;31.81;66.29;100466.22;5215209;28;20275;-78
2021/06/17 07:32:10;;;;;;;9.60;6.53;;;;;;;31.83;65.20;100458.75;5214367;28;20027;-78
2021/06/17 07:34:42;;;;;;;9.93;6.65;;;;;;;32.34;64.30;100462.13;5212858;28;20287;-78
2021/06/17 07:37:13;;;;;;;11.45;6.47;;;;;;;32.83;63.98;100461.06;5213606;28;20039;-78
2021/06/17 07:39:44;;;;;;;11.35;6.70;;;;;;;33.17;64.22;100469.16;5423801;22;20522;-77
2021/06/17 07:42:15;;;;;;;10.10;6.30;;;;;;;33.40;62.56;100467.00;5229285;28;20377;-76
2021/06/17 07:44:46;;;;;;;12.50;6.75;;;;;;;33.30;62.54;100466.56;5228172;28;20091;-78
2021/06/17 07:47:17;;;;;;;9.70;6.85;;;;;;;33.52;63.09;100473.50;5233808;28;20029;-78
2021/06/17 07:49:48;;;;;;;8.00;6.10;;;;;;;33.22;62.99;100474.84;5236236;28;20051;-78
2021/06/17 07:52:18;;;;;;;10.67;5.90;;;;;;;33.21;63.82;100478.59;5237806;28;20107;-77
2021/06/17 07:54:49;;;;;;;7.50;5.88;;;;;;;33.18;64.50;100484.38;5228698;28;20477;-79
2021/06/17 07:57:19;;;;;;;11.77;5.90;;;;;;;33.76;62.41;100483.81;5228954;28;20050;-78
2021/06/17 07:59:49;;;;;;;8.88;6.20;;;;;;;33.43;63.50;100480.13;5237567;28;20437;-81
2021/06/17 08:02:20;;;;;;;10.82;6.15;;;;;;;33.32;65.15;100475.31;5234476;28;20665;-79
2021/06/17 08:04:50;;;;;;;7.60;5.72;;;;;;;33.90;63.03;100477.38;5229785;28;20056;-77
2021/06/17 08:07:20;;;;;;;9.10;5.83;;;;;;;34.24;63.04;100478.06;5232060;28;20057;-77
2021/06/17 08:09:51;;;;;;;10.13;6.20;;;;;;;33.95;62.14;100485.72;5234181;28;20028;-76
2021/06/17 08:12:23;;;;;;;10.77;5.72;;;;;;;34.47;62.21;100466.75;5226522;28;20283;-77
2021/06/17 08:14:53;;;;;;;10.68;5.43;;;;;;;34.74;63.57;100479.31;5236278;28;20086;-77
2021/06/17 08:17:24;;;;;;;9.50;5.27;;;;;;;35.33;60.02;100472.66;5232707;28;20028;-77
2021/06/17 08:19:54;;;;;;;11.03;5.33;;;;;;;35.29;60.70;100471.44;5237946;28;20094;-77
2021/06/17 08:22:27;;;;;;;7.50;5.00;;;;;;;34.99;60.54;100466.72;5232483;28;20287;-78
2021/06/17 08:24:57;;;;;;;10.73;5.93;;;;;;;35.24;60.16;100466.63;5228562;28;20541;-78
2021/06/17 08:27:27;;;;;;;6.93;5.23;;;;;;;36.76;58.21;100468.94;5229167;28;20028;-80
2021/06/17 08:29:57;;;;;;;8.50;5.53;;;;;;;35.09;61.34;100476.06;5238579;28;20533;-79
2021/06/17 08:32:28;;;;;;;9.67;5.57;;;;;;;34.70;61.70;100475.34;5234116;28;20116;-77
2021/06/17 08:34:58;;;;;;;7.83;5.10;;;;;;;37.41;58.37;100469.84;5224307;28;20355;-77
2021/06/17 08:37:28;;;;;;;8.20;5.13;;;;;;;37.01;57.55;100470.56;5228357;28;20400;-77
2021/06/17 08:39:59;;;;;;;11.47;5.07;;;;;;;36.88;57.10;100461.69;5232860;28;20283;-77
2021/06/17 08:42:30;;;;;;;8.05;4.82;;;;;;;36.77;57.68;100466.00;5235515;28;20270;-77
2021/06/17 08:45:05;;;;;;;9.15;4.65;;;;;;;37.44;55.82;100463.09;5232797;28;20028;-76
2021/06/17 08:47:36;;;;;;;8.38;4.72;;;;;;;37.00;55.78;100468.91;5234736;28;20089;-77
2021/06/17 08:50:09;;;;;;;7.30;4.22;;;;;;;37.39;57.94;100465.69;5233393;28;20509;-77
2021/06/17 08:52:40;;;;;;;9.23;4.32;;;;;;;37.92;54.17;100470.22;5234739;28;20504;-77
2021/06/17 08:55:23;;;;;;;7.05;4.13;;;;;;;38.06;54.31;100474.41;5226074;28;20032;-77
2021/06/17 08:57:55;;;;;;;6.50;4.15;;;;;;;37.75;54.39;100458.25;5228125;28;20024;-77
2021/06/17 09:00:37;;;;;;;6.07;4.10;;;;;;;37.33;54.85;100461.13;5227706;28;20044;-78
2021/06/17 09:03:12;;;;;;;7.40;4.13;;;;;;;37.76;52.75;100461.84;5234741;28;20041;-77
2021/06/17 09:05:45;;;;;;;6.70;4.18;;;;;;;38.18;51.31;100458.03;5222142;28;20395;-76
2021/06/17 09:08:22;;;;;;;5.65;4.03;;;;;;;37.35;54.38;100456.28;5230163;28;20032;-77
2021/06/17 09:10:54;;;;;;;7.40;4.43;;;;;;;37.10;55.53;100455.56;5232637;28;20031;-78
2021/06/17 09:13:33;;;;;;;5.90;4.15;;;;;;;37.02;55.32;100455.03;5236505;28;20058;-77
2021/06/17 09:16:03;;;;;;;7.35;4.30;;;;;;;37.59;53.53;100449.91;5230243;28;20029;-78
2021/06/17 09:18:35;;;;;;;11.07;4.20;;;;;;;38.38;53.39;100444.88;5239109;28;20104;-77
2021/06/17 09:21:10;;;;;;;8.80;3.90;;;;;;;37.77;53.85;100453.41;5237463;28;20367;-77
2021/06/17 09:23:41;;;;;;;9.93;4.30;;;;;;;37.02;54.05;100442.22;5237967;28;20543;-78
2021/06/17 09:26:16;;;;;;;8.85;4.20;;;;;;;36.10;55.25;100446.91;5226071;28;20497;-77
2021/06/17 09:29:05;;;;;;;10.25;4.03;;;;;;;36.03;54.04;100440.66;5235489;28;20024;-80
2021/06/17 09:31:39;;;;;;;5.68;3.53;;;;;;;37.46;53.32;100437.28;5235050;28;20529;-80
2021/06/17 09:34:11;;;;;;;6.97;3.80;;;;;;;37.47;52.09;100432.66;5234372;28;20033;-80
2021/06/17 09:36:41;;;;;;;5.57;3.63;;;;;;;36.45;51.85;100431.69;5239589;28;20032;-80
2021/06/17 09:39:18;;;;;;;6.03;3.40;;;;;;;37.61;51.29;100431.41;5240175;28;20059;-79
2021/06/17 09:41:52;;;;;;;10.07;3.78;;;;;;;36.99;54.44;100431.75;5238113;28;20354;-79
2021/06/17 09:44:31;;;;;;;4.80;3.10;;;;;;;37.32;52.38;100440.38;5241157;28;20095;-77
2021/06/17 09:47:09;;;;;;;6.28;3.40;;;;;;;37.30;50.88;100439.78;5232502;28;20028;-77
2021/06/17 09:49:41;;;;;;;6.63;3.15;;;;;;;36.66;52.97;100442.19;5235499;28;20044;-78
2021/06/17 09:52:13;;;;;;;7.65;3.97;;;;;;;36.36;55.17;100435.78;5235508;28;20025;-78
2021/06/17 09:54:45;;;;;;;6.32;3.67;;;;;;;36.94;55.97;100436.22;5228102;28;20040;-77
2021/06/17 09:57:20;;;;;;;6.90;3.45;;;;;;;37.55;54.72;100426.88;5224525;28;20618;-77
2021/06/17 09:59:54;;;;;;;5.65;3.10;;;;;;;37.21;51.86;100427.53;5237017;28;20017;-76
2021/06/17 10:02:34;;;;;;;3.88;2.92;;;;;;;37.60;48.99;100427.00;5230882;28;20390;-78
2021/06/17 10:05:19;;;;;;;5.32;3.28;;;;;;;36.46;53.07;100436.09;5232815;28;20032;-78
2021/06/17 10:07:50;;;;;;;4.97;3.22;;;;;;;37.55;50.01;100433.16;5232663;28;20028;-78
2021/06/17 10:10:22;;;;;;;6.15;3.40;;;;;;;36.64;50.68;100432.59;5238507;28;20024;-78
2021/06/17 10:12:53;;;;;;;7.93;3.60;;;;;;;36.02;53.37;100430.81;5234700;28;20040;-76
2021/06/17 10:15:25;;;;;;;5.63;3.25;;;;;;;35.92;56.76;100426.88;5235606;28;20028;-76
2021/06/17 10:17:55;;;;;;;6.50;3.45;;;;;;;35.64;55.75;100427.31;5232055;28;20032;-77
2021/06/17 10:20:26;;;;;;;6.47;3.77;;;;;;;35.16;54.75;100420.66;5233353;28;20217;-77
2021/06/17 10:22:57;;;;;;;7.00;3.70;;;;;;;34.72;57.55;100417.00;5236829;28;20384;-76
2021/06/17 10:25:33;;;;;;;7.10;3.83;;;;;;;34.32;57.08;100417.28;5227197;28;20032;-77
2021/06/17 10:28:04;;;;;;;4.43;3.10;;;;;;;33.76;54.62;100419.56;5228410;28;20056;-78
2021/06/17 10:30:43;;;;;;;6.45;3.45;;;;;;;33.95;54.66;100424.16;5234698;28;20110;-79
2021/06/17 10:33:32;;;;;;;4.50;3.22;;;;;;;34.02;56.27;100416.84;5234809;28;20047;-78
2021/06/17 10:36:20;;;;;;;5.88;3.30;;;;;;;33.93;54.85;100419.97;5221638;28;20036;-79
2021/06/17 10:39:10;;;;;;;6.47;3.70;;;;;;;33.27;54.82;100412.72;5230159;28;20024;-79
2021/06/17 10:41:46;;;;;;;7.22;3.70;;;;;;;33.91;54.62;100405.78;5233273;28;20037;-79
2021/06/17 10:44:52;;;;;;;8.55;3.70;;;;;;;33.37;55.73;100407.75;5235816;28;20082;-78
2021/06/17 10:47:41;;;;;;;6.55;3.42;;;;;;;33.27;54.01;100404.59;5231793;28;20127;-79
2021/06/17 10:50:18;;;;;;;5.50;3.30;;;;;;;33.58;55.58;100397.59;5239318;28;20407;-81
2021/06/17 10:52:52;;;;;;;6.97;3.35;;;;;;;33.37;57.50;100403.19;5238270;28;20031;-78
2021/06/17 10:55:24;;;;;;;6.00;3.13;;;;;;;33.12;55.72;100399.31;5232870;28;20059;-79
2021/06/17 10:57:56;;;;;;;4.80;2.95;;;;;;;33.12;54.40;100402.00;5231014;28;20032;-77
2021/06/17 11:00:29;;;;;;;7.30;2.58;;;;;;;33.00;53.12;100403.63;5229221;28;20032;-78
2021/06/17 11:03:05;;;;;;;5.18;2.42;;;;;;;33.15;52.60;100404.31;5236264;28;20055;-78
2021/06/17 11:05:36;;;;;;;4.07;2.40;;;;;;;33.30;53.32;100405.03;5221984;28;20087;-78
2021/06/17 11:08:25;;;;;;;4.10;2.13;;;;;;;33.51;48.63;100399.44;5233344;28;20032;-78
2021/06/17 11:11:05;;;;;;;5.53;2.35;;;;;;;33.54;53.31;100392.78;5228927;28;20028;-78
2021/06/17 11:13:37;;;;;;;4.57;2.15;;;;;;;33.62;50.52;100390.72;5234735;28;20457;-78
2021/06/17 11:16:13;;;;;;;3.97;2.15;;;;;;;33.30;52.17;100387.94;5224220;28;20079;-78
2021/06/17 11:19:17;;;;;;;4.05;2.08;;;;;;;33.29;51.39;100391.69;5225516;28;20040;-78
2021/06/17 11:21:41;;;;;;;4.18;2.10;;;;;;;33.44;54.05;100384.19;5223313;28;20662;-78
2021/06/17 11:24:13;;;;;;;5.78;2.05;;;;;;;33.00;50.75;100384.66;5227919;28;20035;-78
2021/06/17 11:26:51;;;;;;;3.45;1.90;;;;;;;33.14;53.13;100382.84;5221462;28;20053;-78
2021/06/17 11:29:34;;;;;;;3.95;1.98;;;;;;;33.20;55.04;100379.34;5235424;28;20371;-78
2021/06/17 11:32:27;;;;;;;6.22;2.10;;;;;;;32.70;49.57;100370.81;5232184;28;20285;-78
2021/06/17 11:34:58;;;;;;;6.10;2.25;;;;;;;32.74;49.99;100370.16;5228522;28;20104;-79
2021/06/17 11:37:31;;;;;;;5.72;2.35;;;;;;;32.61;51.67;100372.81;5236022;28;20103;-78
2021/06/17 11:40:03;;;;;;;7.55;2.40;;;;;;;32.52;50.88;100373.19;5227953;28;20110;-78
2021/06/17 11:42:34;;;;;;;7.03;2.22;;;;;;;32.51;50.48;100366.06;5234981;28;20036;-78
2021/06/17 11:45:08;;;;;;;4.82;2.10;;;;;;;32.43;49.22;100374.34;5231877;28;20032;-78